87B weather

Portage Lake Municipal Seaplane Base
Portage Lake, Maine, United States

Public forecast

Using degrees Fahrenheit for public forecast. Weather courtesy of forecast.io.

METAR (pilot weather report)

Closest report is Northern Maine Regional Airport at Presque Isle, 18.4 nm (34.2 km) ESE. Retrieved 2019/07/22 07:56 UTC (52 minutes ago):

KPQI 220756Z AUTO 23003KT 10SM CLR 12/12 A2981 RMK AO2 SLP118 T01220122

TAF (pilot weather forecast)

Closest forecast is Northern Maine Regional Airport at Presque Isle, 18.4 nm (34.2 km) ESE. Retrieved 2019/07/22 06:22 UTC (2 hours ago):

TAF KPQI 220520Z 2206/2306 30005KT P6SM SCT060 FM221300 32007KT P6SM FEW100 FM221700 29007KT P6SM SCT100 FM222200 25003KT P6SM BKN100 FM230100 19003KT P6SM BKN100